createdAt,value
2022-10-13T00:00:50.526Z,7.50
2022-10-13T00:03:18.136Z,7.50
2022-10-13T00:05:47.568Z,7.50
2022-10-13T00:08:18.925Z,7.50
2022-10-13T00:10:47.093Z,7.50
2022-10-13T00:13:14.503Z,7.50
2022-10-13T00:15:44.456Z,7.50
2022-10-13T00:18:12.695Z,7.50
2022-10-13T00:20:45.035Z,7.50
2022-10-13T00:23:12.001Z,7.50
2022-10-13T00:25:50.053Z,7.50
2022-10-13T00:28:19.015Z,7.50
2022-10-13T00:30:48.040Z,7.50
2022-10-13T00:33:16.685Z,7.50
2022-10-13T00:35:49.100Z,7.50
2022-10-13T00:38:18.350Z,7.60
2022-10-13T00:40:51.030Z,7.70
2022-10-13T00:43:26.452Z,7.70
2022-10-13T00:45:53.968Z,7.70
2022-10-13T00:48:31.143Z,7.80
2022-10-13T00:50:58.845Z,7.90
2022-10-13T00:53:31.939Z,7.90
2022-10-13T00:55:59.140Z,7.90
2022-10-13T00:58:31.286Z,8.00
2022-10-13T01:00:58.911Z,8.10
2022-10-13T01:03:27.941Z,8.00
2022-10-13T01:05:58.769Z,8.00
2022-10-13T01:08:29.040Z,8.00
2022-10-13T01:11:06.627Z,8.00
2022-10-13T01:14:04.491Z,8.00
2022-10-13T01:16:51.573Z,7.90
2022-10-13T01:19:46.106Z,8.00
2022-10-13T01:22:45.541Z,8.00
2022-10-13T01:25:49.120Z,8.00
2022-10-13T01:28:34.812Z,8.00
2022-10-13T01:31:15.246Z,8.00
2022-10-13T01:34:16.201Z,8.00
2022-10-13T01:37:10.187Z,8.10
2022-10-13T01:39:56.021Z,8.10
2022-10-13T01:42:30.174Z,8.10
2022-10-13T01:45:01.606Z,8.10
2022-10-13T01:47:30.556Z,8.10
2022-10-13T01:49:58.007Z,8.20
2022-10-13T01:52:31.658Z,8.20
2022-10-13T01:55:04.661Z,8.20
2022-10-13T01:57:34.474Z,8.20
2022-10-13T02:00:09.205Z,8.20
2022-10-13T02:03:06.761Z,8.20
2022-10-13T02:05:49.060Z,8.20
2022-10-13T02:08:37.060Z,8.20
2022-10-13T02:11:14.545Z,8.20
2022-10-13T02:14:03.412Z,8.20
2022-10-13T02:16:35.563Z,8.20
2022-10-13T02:19:08.250Z,8.30
2022-10-13T02:21:36.309Z,8.30
2022-10-13T02:24:05.947Z,8.30
2022-10-13T02:26:34.044Z,8.30
2022-10-13T02:29:08.244Z,8.30
2022-10-13T02:31:34.976Z,8.40
2022-10-13T02:34:01.746Z,8.40
2022-10-13T02:36:28.520Z,8.40
2022-10-13T02:38:55.238Z,8.40
2022-10-13T02:41:22.009Z,8.50
2022-10-13T02:43:48.742Z,8.50
2022-10-13T02:46:15.991Z,8.50
2022-10-13T02:48:42.892Z,8.50
2022-10-13T02:51:09.637Z,8.60
2022-10-13T02:53:36.348Z,8.60
2022-10-13T02:56:03.560Z,8.60
2022-10-13T02:58:30.247Z,8.70
2022-10-13T03:01:06.322Z,8.70
2022-10-13T03:03:33.036Z,8.70
2022-10-13T03:06:00.248Z,8.70
2022-10-13T03:08:27.477Z,8.70
2022-10-13T03:10:54.363Z,8.80
2022-10-13T03:13:21.501Z,8.80
2022-10-13T03:15:48.255Z,8.80
2022-10-13T03:18:15.166Z,8.80
2022-10-13T03:20:42.124Z,8.90
2022-10-13T03:23:08.943Z,8.90
2022-10-13T03:25:35.774Z,8.90
2022-10-13T03:28:02.966Z,8.90
2022-10-13T03:30:29.708Z,8.90
2022-10-13T03:32:56.493Z,8.90
2022-10-13T03:35:23.289Z,8.90
2022-10-13T03:37:50.004Z,8.90
2022-10-13T03:40:17.228Z,8.90
2022-10-13T03:42:43.942Z,8.90
2022-10-13T03:45:11.044Z,9.00
2022-10-13T03:47:38.247Z,9.00
2022-10-13T03:50:06.171Z,9.00
2022-10-13T03:52:33.340Z,9.00
2022-10-13T03:55:00.103Z,9.00
2022-10-13T03:57:27.054Z,9.10
2022-10-13T03:59:56.103Z,9.10
2022-10-13T04:02:23.327Z,9.10
2022-10-13T04:04:50.452Z,9.10
2022-10-13T04:07:17.222Z,9.10
2022-10-13T04:09:44.000Z,9.10
2022-10-13T04:12:10.747Z,9.20
2022-10-13T04:14:37.473Z,9.20
2022-10-13T04:17:04.212Z,9.20
2022-10-13T04:19:31.020Z,9.20
2022-10-13T04:21:57.762Z,9.20
2022-10-13T04:24:24.515Z,9.20
2022-10-13T04:26:51.248Z,9.20
2022-10-13T04:29:17.939Z,9.20
2022-10-13T04:31:44.648Z,9.20
2022-10-13T04:34:12.160Z,9.20
2022-10-13T04:36:38.956Z,9.20
2022-10-13T04:39:05.827Z,9.20
2022-10-13T04:41:32.600Z,9.20
2022-10-13T04:44:02.421Z,9.30
2022-10-13T04:46:29.664Z,9.30
2022-10-13T04:48:56.999Z,9.30
2022-10-13T04:51:25.871Z,9.30
2022-10-13T04:53:58.045Z,9.30
2022-10-13T04:56:25.580Z,9.30
2022-10-13T04:58:52.789Z,9.30
2022-10-13T05:01:22.723Z,9.30
2022-10-13T05:04:00.328Z,9.30
2022-10-13T05:06:29.754Z,9.30
2022-10-13T05:08:56.738Z,9.30
2022-10-13T05:11:25.450Z,9.30
2022-10-13T05:13:52.589Z,9.30
2022-10-13T05:16:21.268Z,9.30
2022-10-13T05:18:48.924Z,9.30
2022-10-13T05:21:18.672Z,9.40
2022-10-13T05:23:45.953Z,9.40
2022-10-13T05:26:17.837Z,9.40
2022-10-13T05:28:45.192Z,9.40
2022-10-13T05:31:16.911Z,9.50
2022-10-13T05:33:44.755Z,9.50
2022-10-13T05:36:14.210Z,9.50
2022-10-13T05:38:41.248Z,9.50
2022-10-13T05:41:10.448Z,9.60
2022-10-13T05:43:39.249Z,9.60
2022-10-13T05:46:06.396Z,9.60
2022-10-13T05:48:33.189Z,9.60
2022-10-13T05:51:02.028Z,9.60
2022-10-13T05:53:32.242Z,9.60
2022-10-13T05:56:06.163Z,9.60
2022-10-13T05:58:37.928Z,9.60
2022-10-13T06:01:10.177Z,9.60
2022-10-13T06:03:38.336Z,9.60
2022-10-13T06:06:05.284Z,9.60
2022-10-13T06:08:32.135Z,9.60
2022-10-13T06:10:59.143Z,9.60
2022-10-13T06:13:26.101Z,9.60
2022-10-13T06:15:53.133Z,9.60
2022-10-13T06:18:19.895Z,9.60
2022-10-13T06:20:46.724Z,9.70
2022-10-13T06:23:13.422Z,9.70
2022-10-13T06:25:48.583Z,9.70
2022-10-13T06:28:15.749Z,9.70
2022-10-13T06:30:43.592Z,9.70
2022-10-13T06:33:10.312Z,9.80
2022-10-13T06:35:36.988Z,9.80
2022-10-13T06:38:03.821Z,9.80
2022-10-13T06:40:30.512Z,9.80
2022-10-13T06:42:57.332Z,9.80
2022-10-13T06:45:24.159Z,9.90
2022-10-13T06:47:53.786Z,9.90
2022-10-13T06:50:21.365Z,9.90
2022-10-13T06:52:48.188Z,9.90
2022-10-13T06:55:15.066Z,9.90
2022-10-13T06:57:41.794Z,10.00
2022-10-13T07:00:09.131Z,10.00
2022-10-13T07:02:35.977Z,10.10
2022-10-13T07:05:03.002Z,10.10
2022-10-13T07:07:30.115Z,10.20
2022-10-13T07:09:56.884Z,10.30
2022-10-13T07:12:23.729Z,10.30
2022-10-13T07:14:50.463Z,10.40
2022-10-13T07:17:17.514Z,10.50
2022-10-13T07:19:47.982Z,10.60
2022-10-13T07:22:15.487Z,10.70
2022-10-13T07:24:45.436Z,10.80
2022-10-13T07:27:12.220Z,10.90
2022-10-13T07:29:39.060Z,11.00
2022-10-13T07:32:06.649Z,11.00
2022-10-13T07:34:33.724Z,11.10
2022-10-13T07:37:00.770Z,11.10
2022-10-13T07:39:27.507Z,11.20
2022-10-13T07:41:54.419Z,11.20
2022-10-13T07:44:21.167Z,11.20
2022-10-13T07:46:47.968Z,11.30
2022-10-13T07:49:16.269Z,11.30
2022-10-13T07:51:44.073Z,11.30
2022-10-13T07:54:11.112Z,11.30
2022-10-13T07:56:38.481Z,11.50
2022-10-13T07:59:05.394Z,11.50
2022-10-13T08:01:32.275Z,11.70
2022-10-13T08:03:59.331Z,11.80
2022-10-13T08:06:26.424Z,11.90
2022-10-13T08:08:53.624Z,11.90
2022-10-13T08:11:20.808Z,12.10
2022-10-13T08:13:51.600Z,12.20
2022-10-13T08:16:19.177Z,12.30
2022-10-13T08:18:46.872Z,12.30
2022-10-13T08:21:57.603Z,12.30
2022-10-13T08:24:05.491Z,12.40
2022-10-13T08:26:32.334Z,12.30
2022-10-13T08:31:46.302Z,12.20
2022-10-13T08:34:13.324Z,12.20
2022-10-13T08:36:40.627Z,12.20
2022-10-13T08:39:07.504Z,12.20
2022-10-13T08:41:39.585Z,12.20
2022-10-13T08:47:20.640Z,12.40
2022-10-13T08:49:47.630Z,12.60
2022-10-13T08:52:20.521Z,12.70
2022-10-13T08:54:47.761Z,12.80
2022-10-13T08:57:14.773Z,12.90
2022-10-13T09:02:24.980Z,13.10
2022-10-13T09:04:53.113Z,13.20
2022-10-13T09:07:32.347Z,13.30
2022-10-13T09:09:59.067Z,13.30
2022-10-13T09:12:26.685Z,13.40
2022-10-13T09:15:11.596Z,13.40
2022-10-13T09:17:40.862Z,13.40
2022-10-13T09:20:27.659Z,13.50
2022-10-13T09:23:29.961Z,13.60
2022-10-13T09:25:58.579Z,13.60
2022-10-13T09:28:29.527Z,13.70
2022-10-13T09:31:25.174Z,13.70
2022-10-13T09:33:59.517Z,13.70
2022-10-13T09:36:26.841Z,13.70
2022-10-13T09:39:22.864Z,13.70
2022-10-13T09:41:49.664Z,13.70
2022-10-13T09:44:31.302Z,13.70
2022-10-13T09:47:04.521Z,13.70
2022-10-13T09:49:39.346Z,13.80
2022-10-13T09:52:12.193Z,13.60
2022-10-13T09:54:53.474Z,13.70
2022-10-13T09:57:44.943Z,13.70
2022-10-13T10:00:22.228Z,13.70
2022-10-13T10:03:10.575Z,13.70
2022-10-13T10:05:57.632Z,13.80
2022-10-13T10:09:03.707Z,13.70
2022-10-13T10:11:40.486Z,13.80
2022-10-13T10:14:27.294Z,13.80
2022-10-13T10:17:05.866Z,13.70
2022-10-13T10:19:42.615Z,13.60
2022-10-13T10:22:26.596Z,13.70
2022-10-13T10:25:33.097Z,13.70
2022-10-13T10:28:37.342Z,13.70
2022-10-13T10:31:20.959Z,13.90
2022-10-13T10:34:12.425Z,14.00
2022-10-13T10:36:46.512Z,14.10
2022-10-13T10:39:36.611Z,14.20
2022-10-13T10:42:06.917Z,14.30
2022-10-13T10:44:38.492Z,14.60
2022-10-13T10:47:19.689Z,14.50
2022-10-13T10:49:53.531Z,14.60
2022-10-13T10:52:26.907Z,14.80
2022-10-13T10:55:09.871Z,14.80
2022-10-13T10:58:15.142Z,14.90
2022-10-13T11:00:51.952Z,15.00
2022-10-13T11:03:30.726Z,15.00
2022-10-13T11:05:57.440Z,15.00
2022-10-13T11:08:41.250Z,15.20
2022-10-13T11:11:24.725Z,15.20
2022-10-13T11:14:24.130Z,15.50
2022-10-13T11:17:02.874Z,15.50
2022-10-13T11:19:35.715Z,15.60
2022-10-13T11:22:02.402Z,15.80
2022-10-13T11:24:41.266Z,15.80
2022-10-13T11:27:07.933Z,15.80
2022-10-13T11:29:57.147Z,15.80
2022-10-13T11:32:26.660Z,15.80
2022-10-13T11:34:59.245Z,15.80
2022-10-13T11:38:13.917Z,15.80
2022-10-13T11:41:05.131Z,15.80
2022-10-13T11:44:03.440Z,16.00
2022-10-13T11:46:39.051Z,16.10
2022-10-13T11:49:33.023Z,16.10
2022-10-13T11:52:25.853Z,16.20
2022-10-13T11:55:02.391Z,16.10
2022-10-13T11:57:33.131Z,16.10
2022-10-13T11:59:59.822Z,16.00
2022-10-13T12:02:28.285Z,16.00
2022-10-13T12:05:23.536Z,15.90
2022-10-13T12:07:52.965Z,16.00
2022-10-13T12:10:31.706Z,16.00
2022-10-13T12:12:59.136Z,16.00
2022-10-13T12:15:44.177Z,16.10
2022-10-13T12:18:23.904Z,16.20
2022-10-13T12:21:16.208Z,16.30
2022-10-13T12:23:43.690Z,16.40
2022-10-13T12:26:25.261Z,16.40
2022-10-13T12:29:02.822Z,16.40
2022-10-13T12:31:40.393Z,16.30
2022-10-13T12:34:33.229Z,16.40
2022-10-13T12:37:01.484Z,16.30
2022-10-13T12:39:33.215Z,16.30
2022-10-13T12:42:02.119Z,16.30
2022-10-13T12:44:31.482Z,16.30
2022-10-13T12:47:03.802Z,16.20
2022-10-13T12:49:35.377Z,16.30
2022-10-13T12:52:11.299Z,16.10
2022-10-13T12:54:49.424Z,16.10
2022-10-13T12:57:22.987Z,16.00
2022-10-13T12:59:49.795Z,15.90
2022-10-13T13:02:22.566Z,15.90
2022-10-13T13:04:49.521Z,15.80
2022-10-13T13:07:52.303Z,15.80
2022-10-13T13:10:20.180Z,15.90
2022-10-13T13:12:49.635Z,15.80
2022-10-13T13:15:25.223Z,15.80
2022-10-13T13:17:58.283Z,15.80
2022-10-13T13:20:33.893Z,15.90
2022-10-13T13:23:01.134Z,15.90
2022-10-13T13:25:27.939Z,15.80
2022-10-13T13:27:55.707Z,15.90
2022-10-13T13:30:24.136Z,15.80
2022-10-13T13:32:51.326Z,15.90
2022-10-13T13:35:18.891Z,15.90
2022-10-13T13:37:50.904Z,15.70
2022-10-13T13:40:23.293Z,15.80
2022-10-13T13:42:50.267Z,15.70
2022-10-13T13:45:20.306Z,15.60
2022-10-13T13:47:47.519Z,15.60
2022-10-13T13:50:24.464Z,15.60
2022-10-13T13:52:51.711Z,15.60
2022-10-13T13:55:18.608Z,15.40
2022-10-13T13:57:45.425Z,15.40
2022-10-13T14:00:14.293Z,15.40
2022-10-13T14:02:42.778Z,15.30
2022-10-13T14:05:10.757Z,15.10
2022-10-13T14:07:37.552Z,15.10
2022-10-13T14:10:05.122Z,15.10
2022-10-13T14:12:32.648Z,15.00
2022-10-13T14:14:59.552Z,15.00
2022-10-13T14:17:27.538Z,14.90
2022-10-13T14:19:54.694Z,14.90
2022-10-13T14:22:22.049Z,14.80
2022-10-13T14:24:49.286Z,14.80
2022-10-13T14:27:16.080Z,14.70
2022-10-13T14:29:42.894Z,14.80
2022-10-13T14:32:09.701Z,14.70
2022-10-13T14:34:36.487Z,14.60
2022-10-13T14:37:03.271Z,14.60
2022-10-13T14:39:30.259Z,14.50
2022-10-13T14:41:57.008Z,14.50
2022-10-13T14:44:23.735Z,14.40
2022-10-13T14:46:50.655Z,14.40
2022-10-13T14:49:17.423Z,14.40
2022-10-13T14:51:44.368Z,14.40
2022-10-13T14:54:11.234Z,14.40
2022-10-13T14:56:37.994Z,14.40
2022-10-13T14:59:07.101Z,14.40
2022-10-13T15:01:34.049Z,14.30
2022-10-13T15:04:02.145Z,14.30
2022-10-13T15:06:29.550Z,14.30
2022-10-13T15:08:56.738Z,14.20
2022-10-13T15:11:24.509Z,14.20
2022-10-13T15:13:51.628Z,14.20
2022-10-13T15:16:23.922Z,14.10
2022-10-13T15:18:51.224Z,14.00
2022-10-13T15:21:18.830Z,14.00
2022-10-13T15:23:45.782Z,13.90
2022-10-13T15:26:14.384Z,13.80
2022-10-13T15:28:52.048Z,13.80
2022-10-13T15:31:20.774Z,13.80
2022-10-13T15:33:51.657Z,13.70
2022-10-13T15:36:19.649Z,13.70
2022-10-13T15:38:46.769Z,13.70
2022-10-13T15:41:13.624Z,13.70
2022-10-13T15:43:40.438Z,13.60
2022-10-13T15:46:10.440Z,13.60
2022-10-13T15:48:37.348Z,13.60
2022-10-13T15:51:13.575Z,13.50
2022-10-13T15:53:40.289Z,13.50
2022-10-13T15:56:08.246Z,13.50
2022-10-13T15:58:36.154Z,13.40
2022-10-13T16:01:10.213Z,13.40
2022-10-13T16:03:37.473Z,13.40
2022-10-13T16:06:05.902Z,13.30
2022-10-13T16:08:35.267Z,13.30
2022-10-13T16:11:06.713Z,13.30
2022-10-13T16:13:33.429Z,13.30
2022-10-13T16:16:00.845Z,13.20
2022-10-13T16:18:32.341Z,13.30
2022-10-13T16:20:59.158Z,13.20
2022-10-13T16:23:26.325Z,13.20
2022-10-13T16:25:53.159Z,13.20
2022-10-13T16:28:19.992Z,13.20
2022-10-13T16:30:46.759Z,13.20
2022-10-13T16:33:13.462Z,13.10
2022-10-13T16:35:40.247Z,13.20
2022-10-13T16:38:06.947Z,13.20
2022-10-13T16:40:33.742Z,13.10
2022-10-13T16:43:00.462Z,13.10
2022-10-13T16:45:47.992Z,13.10
2022-10-13T16:48:13.930Z,13.10
2022-10-13T16:50:40.664Z,13.10
2022-10-13T16:53:07.378Z,13.00
2022-10-13T16:55:34.757Z,13.10
2022-10-13T16:58:01.455Z,13.00
2022-10-13T17:00:28.250Z,13.00
2022-10-13T17:02:55.211Z,13.00
2022-10-13T17:05:21.925Z,13.00
2022-10-13T17:07:48.680Z,13.00
2022-10-13T17:10:15.570Z,13.00
2022-10-13T17:12:42.330Z,13.00
2022-10-13T17:15:09.629Z,13.00
2022-10-13T17:17:36.413Z,13.00
2022-10-13T17:20:04.164Z,13.00
2022-10-13T17:22:31.015Z,12.90
2022-10-13T17:24:57.700Z,12.90
2022-10-13T17:27:24.461Z,12.90
2022-10-13T17:29:54.809Z,12.90
2022-10-13T17:32:22.476Z,12.90
2022-10-13T17:34:49.165Z,12.90
2022-10-13T17:37:15.916Z,12.90
2022-10-13T17:39:42.616Z,12.90
2022-10-13T17:42:09.321Z,12.90
2022-10-13T17:44:36.141Z,12.90
2022-10-13T17:47:02.898Z,12.90
2022-10-13T17:49:29.661Z,12.90
2022-10-13T17:51:56.491Z,12.90
2022-10-13T17:54:24.372Z,12.90
2022-10-13T17:56:51.166Z,12.80
2022-10-13T17:59:18.346Z,12.90
2022-10-13T18:01:45.827Z,12.90
2022-10-13T18:04:15.670Z,12.90
2022-10-13T18:06:46.477Z,12.90
2022-10-13T18:09:18.938Z,12.90
2022-10-13T18:11:50.627Z,12.80
2022-10-13T18:14:24.389Z,12.80
2022-10-13T18:16:52.369Z,12.90
2022-10-13T18:19:20.608Z,12.90
2022-10-13T18:21:47.429Z,12.90
2022-10-13T18:24:14.484Z,12.90
2022-10-13T18:26:41.418Z,12.80
2022-10-13T18:29:10.650Z,12.90
2022-10-13T18:31:39.300Z,12.90
2022-10-13T18:34:10.158Z,12.90
2022-10-13T18:36:47.258Z,12.90
2022-10-13T18:39:20.109Z,12.90
2022-10-13T18:41:48.231Z,12.80
2022-10-13T18:44:15.463Z,12.90
2022-10-13T18:46:42.622Z,12.90
2022-10-13T18:49:13.252Z,12.90
2022-10-13T18:51:41.122Z,12.90
2022-10-13T18:54:08.407Z,12.90
2022-10-13T18:56:38.213Z,12.90
2022-10-13T18:59:06.645Z,12.90
2022-10-13T19:01:35.773Z,12.90
2022-10-13T19:04:03.080Z,12.90
2022-10-13T19:06:32.182Z,12.90
2022-10-13T19:09:07.682Z,12.90
2022-10-13T19:11:35.364Z,12.90
2022-10-13T19:14:02.341Z,12.90
2022-10-13T19:16:31.781Z,12.90
2022-10-13T19:18:58.738Z,12.90
2022-10-13T19:21:25.586Z,13.00
2022-10-13T19:23:52.535Z,12.90
2022-10-13T19:26:23.810Z,12.90
2022-10-13T19:28:55.192Z,12.90
2022-10-13T19:31:24.714Z,12.90
2022-10-13T19:33:52.625Z,13.00
2022-10-13T19:36:34.930Z,12.90
2022-10-13T19:39:04.667Z,12.90
2022-10-13T19:41:33.090Z,12.90
2022-10-13T19:44:00.458Z,12.90
2022-10-13T19:46:27.156Z,12.90
2022-10-13T19:48:54.448Z,12.90
2022-10-13T19:51:21.196Z,12.90
2022-10-13T19:53:47.902Z,12.90
2022-10-13T19:56:26.532Z,12.90
2022-10-13T19:58:54.196Z,12.90
2022-10-13T20:01:21.252Z,12.90
2022-10-13T20:03:48.536Z,12.90
2022-10-13T20:06:15.872Z,12.90
2022-10-13T20:08:43.031Z,12.90
2022-10-13T20:11:11.779Z,12.90
2022-10-13T20:13:38.896Z,12.90
2022-10-13T20:16:10.796Z,12.90
2022-10-13T20:18:37.694Z,12.90
2022-10-13T20:21:05.915Z,12.90
2022-10-13T20:23:33.385Z,12.90
2022-10-13T20:26:09.083Z,12.90
2022-10-13T20:28:42.743Z,12.90
2022-10-13T20:31:11.132Z,12.90
2022-10-13T20:33:38.012Z,12.90
2022-10-13T20:36:08.312Z,12.90
2022-10-13T20:38:36.196Z,12.90
2022-10-13T20:41:24.851Z,12.90
2022-10-13T20:43:52.972Z,12.90
2022-10-13T20:46:21.614Z,12.80
2022-10-13T20:51:36.462Z,12.90
2022-10-13T20:54:03.183Z,12.90
2022-10-13T20:56:29.954Z,12.90
2022-10-13T20:58:57.182Z,12.90
2022-10-13T21:01:24.170Z,12.90
2022-10-13T21:03:55.243Z,12.90
2022-10-13T21:06:23.907Z,12.90
2022-10-13T21:08:51.285Z,12.90
2022-10-13T21:11:20.303Z,12.90
2022-10-13T21:13:48.119Z,12.90
2022-10-13T21:16:23.638Z,12.90
2022-10-13T21:18:51.795Z,12.90
2022-10-13T21:21:21.572Z,12.90
2022-10-13T21:23:57.121Z,12.90
2022-10-13T21:26:25.552Z,12.90
2022-10-13T21:28:53.129Z,12.90
2022-10-13T21:31:22.351Z,12.80
2022-10-13T21:33:50.098Z,12.90
2022-10-13T21:36:20.953Z,12.80
2022-10-13T21:38:49.917Z,12.90
2022-10-13T21:41:16.702Z,12.90
2022-10-13T21:43:43.537Z,12.90
2022-10-13T21:46:25.894Z,12.90
2022-10-13T21:48:54.717Z,12.90
2022-10-13T21:51:24.559Z,12.90
2022-10-13T21:53:53.795Z,12.90
2022-10-13T21:56:21.764Z,12.90
2022-10-13T21:58:49.154Z,12.80
2022-10-13T22:01:19.318Z,12.80
2022-10-13T22:03:47.225Z,12.90
2022-10-13T22:06:19.087Z,12.80
2022-10-13T22:08:49.751Z,12.80
2022-10-13T22:11:17.316Z,12.80
2022-10-13T22:13:44.117Z,12.80
2022-10-13T22:16:20.041Z,12.80
2022-10-13T22:18:47.331Z,12.80
2022-10-13T22:21:19.019Z,12.80
2022-10-13T22:23:46.364Z,12.80
2022-10-13T22:26:15.365Z,12.90
2022-10-13T22:28:42.801Z,12.80
2022-10-13T22:31:12.365Z,12.80
2022-10-13T22:33:42.007Z,12.80
2022-10-13T22:36:15.175Z,12.80
2022-10-13T22:38:42.599Z,12.80
2022-10-13T22:41:09.773Z,12.80
2022-10-13T22:43:37.082Z,12.80
2022-10-13T22:46:04.731Z,12.80
2022-10-13T22:48:36.944Z,12.80
2022-10-13T22:51:07.287Z,12.80
2022-10-13T22:53:34.428Z,12.80
2022-10-13T22:56:04.560Z,12.80
2022-10-13T22:58:31.275Z,12.80
2022-10-13T23:01:08.603Z,12.80
2022-10-13T23:03:36.662Z,12.80
2022-10-13T23:06:04.330Z,12.80
2022-10-13T23:08:31.594Z,12.80
2022-10-13T23:10:58.750Z,12.80
2022-10-13T23:13:25.955Z,12.70
2022-10-13T23:15:52.802Z,12.70
2022-10-13T23:18:19.521Z,12.70
2022-10-13T23:20:46.204Z,12.70
2022-10-13T23:23:12.944Z,12.70
2022-10-13T23:25:39.638Z,12.70
2022-10-13T23:28:06.361Z,12.70
2022-10-13T23:30:33.121Z,12.70
2022-10-13T23:32:59.862Z,12.70
2022-10-13T23:35:26.564Z,12.70
2022-10-13T23:37:53.290Z,12.70
2022-10-13T23:40:20.522Z,12.70
2022-10-13T23:42:47.709Z,12.70
2022-10-13T23:45:14.604Z,12.70
2022-10-13T23:47:41.347Z,12.70
2022-10-13T23:50:08.408Z,12.70
2022-10-13T23:52:35.171Z,12.70
2022-10-13T23:55:01.908Z,12.70
2022-10-13T23:57:30.131Z,12.70
2022-10-13T23:59:56.834Z,12.60
